Seabourn Pride — C6FR5 — position and weather

sailwx.info

Track history (hours):
 
Tides and Currents Weather Stations Pressure Air Temp Water Temp Dewpoint Dewpoint Depression Visibility Wind Speed Wind Dir Waves Ship Positions

Seabourn Pride

Operator: Cunard Seabourn

Last reported at 2017-Jun-26 10:28 UTC. Time now 2017-Jun-26 10:37 UTC.
Position N 55°13' W 006°41'.

Length 134 m; draft 5.7 m.

Type: Ship. MMSI: 311084000.

Date/timePositionNaut miles runAvg speedWind from/ knotsBaromVisibWave heightAir tempDewpointWater temp
2017-Jun-26 10:28N 55°13' W 006°41'0 0.1
2017-Jun-26 09:58N 55°13' W 006°41'0 0.0
2017-Jun-26 09:28N 55°13' W 006°41'0 0.0
2017-Jun-26 08:58N 55°13' W 006°41'0 0.0
2017-Jun-26 08:28N 55°13' W 006°41'0 0.0
2017-Jun-26 07:58N 55°13' W 006°41'0 0.0
2017-Jun-26 07:28N 55°13' W 006°41'0 0.0
2017-Jun-26 06:58N 55°13' W 006°41'0 0.1
2017-Jun-26 06:28N 55°13' W 006°41'0 0.1
2017-Jun-26 06:00N 55°13' W 006°41'4 7.9
2017-Jun-26 05:30N 55°17' W 006°41'5 9.2
2017-Jun-26 05:00N 55°21' W 006°42'5 9.4
2017-Jun-26 04:30N 55°26' W 006°43'4 8.8
2017-Jun-26 04:00N 55°30' W 006°43'4 8.6
2017-Jun-26 03:30N 55°35' W 006°44'3 6.7
2017-Jun-26 03:00N 55°38' W 006°44'3 6.3
2017-Jun-26 02:30N 55°41' W 006°45'3 6.7
2017-Jun-26 02:00N 55°44' W 006°45'4 7.7
2017-Jun-26 01:30N 55°48' W 006°45'41 8.7
2017-Jun-25 20:45N 56°16' W 005°50'5 9.3
2017-Jun-25 20:10N 56°20' W 005°42'2 9.6
2017-Jun-25 20:00N 56°21' W 005°40'5 9.7
2017-Jun-25 19:30N 56°25' W 005°35'3 5.1
2017-Jun-25 18:58N 56°26' W 005°31'0 0.0
2017-Jun-25 18:28N 56°26' W 005°31'0 0.0
2017-Jun-25 17:52N 56°26' W 005°31'0 0.0
2017-Jun-25 17:28N 56°26' W 005°31'0 0.0
2017-Jun-25 16:58N 56°26' W 005°31'0 0.0
2017-Jun-25 16:22N 56°26' W 005°31'0 0.1
2017-Jun-25 15:58N 56°26' W 005°31'0 0.0
2017-Jun-25 15:25N 56°26' W 005°31'0 0.0
2017-Jun-25 14:55N 56°26' W 005°31'0 0.1
2017-Jun-25 14:22N 56°26' W 005°31'0 0.0
2017-Jun-25 13:28N 56°26' W 005°31'0 0.1
2017-Jun-25 12:58N 56°26' W 005°31'0 0.1
2017-Jun-25 12:28N 56°26' W 005°31'0 0.0
2017-Jun-25 11:55N 56°26' W 005°31'0 0.0
2017-Jun-25 11:16N 56°26' W 005°31'0 0.0
2017-Jun-25 10:55N 56°26' W 005°31'0 0.1
2017-Jun-25 10:28N 56°26' W 005°31'0 0.0
2017-Jun-25 09:58N 56°26' W 005°31'0 0.0
2017-Jun-25 09:28N 56°26' W 005°31'0 0.0
2017-Jun-25 08:58N 56°26' W 005°31'0 0.0
2017-Jun-25 08:25N 56°26' W 005°31'0 0.0
2017-Jun-25 07:55N 56°26' W 005°31'0 0.1
2017-Jun-25 07:28N 56°26' W 005°31'0 0.0
2017-Jun-25 06:58N 56°26' W 005°31'0 0.1
2017-Jun-25 06:28N 56°26' W 005°31'0 0.1
2017-Jun-25 05:58N 56°26' W 005°31'0 0.0
2017-Jun-25 05:28N 56°26' W 005°31'0 0.6
2017-Jun-25 05:00N 56°26' W 005°31'2 4.5
2017-Jun-25 04:31N 56°26' W 005°35'2 4.4
2017-Jun-25 04:00N 56°27' W 005°32'2 3.2
2017-Jun-25 03:30N 56°26' W 005°35'3 5.1
2017-Jun-25 03:01N 56°24' W 005°37'2 3.4
2017-Jun-25 02:30N 56°26' W 005°36'2 4.7
2017-Jun-25 02:00N 56°27' W 005°32'2 3.0
2017-Jun-25 01:30N 56°26' W 005°35'2 4.6
2017-Jun-25 01:00N 56°24' W 005°37'1 1.8
2017-Jun-25 00:30N 56°25' W 005°37'3 6.8
2017-Jun-25 00:00N 56°28' W 005°39'121 5.9
2017-Jun-24 03:37N 58°29' W 005°21'210.2
2017-Jun-24 03:23N 58°30' W 005°18'33 9.3
2017-Jun-23 23:49N 58°42' W 004°18'3 9.7
2017-Jun-23 23:30N 58°42' W 004°12'5 9.7
2017-Jun-23 23:00N 58°42' W 004°03'5 9.3
2017-Jun-23 22:30N 58°42' W 003°54'5 9.0
2017-Jun-23 22:00N 58°42' W 003°45'5 9.1
2017-Jun-23 21:30N 58°42' W 003°37'5 8.9
2017-Jun-23 21:00N 58°43' W 003°28'4 8.2
2017-Jun-23 20:30N 58°43' W 003°20'3 6.8
2017-Jun-23 20:00N 58°43' W 003°14'3 5.5
2017-Jun-23 19:30N 58°43' W 003°09'2 4.4
2017-Jun-23 19:00N 58°43' W 003°04'3 5.0
2017-Jun-23 18:30N 58°43' W 002°60'3 5.6
2017-Jun-23 18:00N 58°43' W 002°54'511.0
2017-Jun-23 17:30N 58°47' W 002°47'612.1
2017-Jun-23 17:00N 58°52' W 002°40'810.6
2017-Jun-23 16:15N 58°60' W 002°41'312.3
2017-Jun-23 16:00N 59°00' W 002°47'510.3
2017-Jun-23 15:30N 59°01' W 002°57'1 2.6
2017-Jun-23 14:59N 59°00' W 002°58'0 0.1
2017-Jun-23 13:59N 59°00' W 002°58'0 0.0
2017-Jun-23 13:29N 59°00' W 002°58'0 0.0
2017-Jun-23 12:59N 59°00' W 002°58'0 0.1
2017-Jun-23 12:26N 59°00' W 002°58'0 0.1
2017-Jun-23 11:59N 59°00' W 002°58'0 0.2
2017-Jun-23 11:29N 59°00' W 002°58'0 0.1
2017-Jun-23 10:53N 59°00' W 002°58'0 0.1
2017-Jun-23 10:29N 59°00' W 002°58'0 0.1
2017-Jun-23 09:59N 59°00' W 002°58'0 0.0
2017-Jun-23 09:23N 59°00' W 002°58'0 0.0
2017-Jun-23 08:59N 59°00' W 002°58'0 0.0
2017-Jun-23 08:29N 59°00' W 002°58'0 0.1
2017-Jun-23 07:59N 59°00' W 002°58'0 0.1
2017-Jun-23 07:26N 59°00' W 002°58'0 0.4
2017-Jun-23 07:00N 59°00' W 002°58'2 4.6
2017-Jun-23 06:30N 59°01' W 002°53'3 6.2
2017-Jun-23 06:00N 59°00' W 002°47'3 6.7
2017-Jun-23 05:30N 58°59' W 002°41'3 6.9
2017-Jun-23 05:00N 58°56' W 002°38'6 7.2
2017-Jun-23 04:11N 58°50' W 002°37'1 8.1
2017-Jun-23 04:00N 58°49' W 002°38'4 8.4
2017-Jun-23 03:30N 58°45' W 002°41'4 8.2
2017-Jun-23 03:00N 58°41' W 002°44'5 9.3
2017-Jun-23 02:30N 58°37' W 002°47'713.0
2017-Jun-23 02:00N 58°31' W 002°51'66 1.9
2017-Jun-21 15:13N 57°37' W 001°37'2 7.0
2017-Jun-21 15:00N 57°36' W 001°37'3 6.3
2017-Jun-21 14:30N 57°33' W 001°37'13 6.0
2017-Jun-21 12:25N 57°21' W 001°32'3 6.5
2017-Jun-21 11:53N 57°17' W 001°35'2 6.4
2017-Jun-21 11:30N 57°15' W 001°36'3 6.3
2017-Jun-21 10:59N 57°12' W 001°38'3 5.8
2017-Jun-21 10:30N 57°09' W 001°40'4 6.6
2017-Jun-21 09:57N 57°06' W 001°42'3 6.9
2017-Jun-21 09:28N 57°03' W 001°44'3 6.4
2017-Jun-21 08:58N 56°60' W 001°46'6 6.2
2017-Jun-21 08:02N 56°54' W 001°50'0 6.4
2017-Jun-21 07:58N 56°54' W 001°50'4 6.1
2017-Jun-21 07:20N 56°50' W 001°53'2 6.1
2017-Jun-21 06:58N 56°48' W 001°54'2 5.3
2017-Jun-21 06:30N 56°46' W 001°56'3 5.4
2017-Jun-21 06:00N 56°43' W 001°58'3 5.8
2017-Jun-21 05:30N 56°41' W 001°60'3 6.1
2017-Jun-21 05:00N 56°38' W 002°02'3 6.4
2017-Jun-21 04:30N 56°35' W 002°04'3 6.3
2017-Jun-21 04:00N 56°32' W 002°06'3 6.0
2017-Jun-21 03:30N 56°29' W 002°08'3 6.0
2017-Jun-21 03:00N 56°26' W 002°10'4 6.4
2017-Jun-21 02:24N 56°24' W 002°15'3 6.5
2017-Jun-21 02:01N 56°22' W 002°18'3 6.9
2017-Jun-21 01:30N 56°19' W 002°23'510.0
2017-Jun-21 01:00N 56°16' W 002°29'510.8
2017-Jun-21 00:30N 56°13' W 002°37'510.9
2017-Jun-21 00:00N 56°09' W 002°45'510.8
2017-Jun-20 23:30N 56°06' W 002°53'510.1
2017-Jun-20 23:00N 56°03' W 002°60'5 9.4
2017-Jun-20 22:30N 56°01' W 003°07'3 5.0
2017-Jun-20 22:00N 55°59' W 003°11'0 0.3
2017-Jun-20 21:30N 55°59' W 003°11'0 0.7
2017-Jun-20 20:58N 55°59' W 003°11'0 0.0
2017-Jun-20 20:28N 55°59' W 003°11'0 0.0
2017-Jun-20 19:58N 55°59' W 003°11'0 0.0
2017-Jun-20 19:28N 55°59' W 003°11'0 0.0
2017-Jun-20 18:58N 55°59' W 003°11'0 0.0
2017-Jun-20 18:28N 55°59' W 003°11'0 0.0
2017-Jun-20 17:58N 55°59' W 003°11'0 0.0
2017-Jun-20 17:28N 55°59' W 003°11'0 0.0
2017-Jun-20 16:58N 55°59' W 003°11'0 0.0
2017-Jun-20 16:28N 55°59' W 003°11'0 0.0
2017-Jun-20 15:58N 55°59' W 003°11'0 0.0
2017-Jun-20 15:28N 55°59' W 003°11'0 0.0
2017-Jun-20 14:58N 55°59' W 003°11'0 0.0
2017-Jun-20 14:28N 55°59' W 003°11'0 0.0
2017-Jun-20 13:28N 55°59' W 003°11'0 0.0
2017-Jun-20 12:58N 55°59' W 003°11'0 0.0
2017-Jun-20 12:28N 55°59' W 003°11'0 0.0
2017-Jun-20 11:58N 55°59' W 003°11'0 0.0
2017-Jun-20 11:28N 55°59' W 003°11'0 0.0
2017-Jun-20 10:58N 55°59' W 003°11'0 0.0
2017-Jun-20 10:25N 55°59' W 003°11'0 0.0
2017-Jun-20 09:58N 55°59' W 003°11'0 0.0
2017-Jun-20 09:28N 55°59' W 003°11'0 0.0
2017-Jun-20 08:58N 55°59' W 003°11'0 0.0
2017-Jun-20 08:28N 55°59' W 003°11'0 0.0
2017-Jun-20 07:58N 55°59' W 003°11'0 0.0
2017-Jun-20 07:28N 55°59' W 003°11'0 0.0
2017-Jun-20 06:58N 55°59' W 003°11'0 0.0
2017-Jun-20 06:28N 55°59' W 003°11'0 0.0
2017-Jun-20 05:58N 55°59' W 003°11'0 0.0
2017-Jun-20 05:30N 55°59' W 003°11'0 0.7
2017-Jun-20 05:00N 55°59' W 003°11'0 0.2
2017-Jun-20 04:31N 55°59' W 003°11'1 2.0
2017-Jun-20 04:00N 56°00' W 003°12'2 3.9
2017-Jun-20 03:31N 56°01' W 003°08'4 7.1
2017-Jun-20 03:00N 56°02' W 003°03'4 7.0
2017-Jun-20 02:30N 56°04' W 002°57'3 5.4
2017-Jun-20 02:01N 56°06' W 002°53'3 5.8
2017-Jun-20 01:31N 56°08' W 002°49'3 5.1
2017-Jun-20 01:00N 56°09' W 002°45'2 4.5
2017-Jun-20 00:30N 56°07' W 002°48'1 2.3
2017-Jun-20 00:00N 56°08' W 002°49'2 4.8
2017-Jun-19 23:31N 56°09' W 002°46'3 5.5
2017-Jun-19 23:00N 56°10' W 002°42'3 5.8
2017-Jun-19 22:30N 56°12' W 002°37'3 6.1
2017-Jun-19 22:00N 56°14' W 002°33'3 6.0
2017-Jun-19 21:31N 56°16' W 002°29'3 6.2
2017-Jun-19 21:01N 56°18' W 002°25'3 6.2
2017-Jun-19 20:31N 56°20' W 002°21'3 6.3
2017-Jun-19 20:00N 56°22' W 002°17'3 6.0
2017-Jun-19 19:31N 56°24' W 002°13'3 6.1
2017-Jun-19 19:01N 56°27' W 002°10'3 6.3
2017-Jun-19 18:31N 56°30' W 002°07'3 6.2
2017-Jun-19 18:00N 56°33' W 002°05'3 6.2
2017-Jun-19 17:27N 56°36' W 002°03'4 6.2
2017-Jun-19 16:51N 56°39' W 002°01'2 6.6
2017-Jun-19 16:30N 56°41' W 001°59'12 6.2
2017-Jun-19 14:33N 56°53' W 001°51'1 5.5
2017-Jun-19 14:25N 56°53' W 001°50'6 6.3
2017-Jun-19 13:30N 56°59' W 001°47'3 6.0
2017-Jun-19 13:01N 57°02' W 001°45'3 6.0
2017-Jun-19 12:29N 57°05' W 001°43'3 6.0
2017-Jun-19 12:01N 57°07' W 001°41'3 6.0
2017-Jun-19 11:30N 57°10' W 001°39'4 6.3
2017-Jun-19 10:51N 57°14' W 001°36'22 6.7
2017-Jun-19 07:34N 57°36' W 001°41'0 8.8
2017-Jun-19 07:30N 57°36' W 001°41'4 8.7
2017-Jun-19 07:00N 57°40' W 001°46'5 8.8
2017-Jun-19 06:30N 57°43' W 001°52'4 7.9
2017-Jun-19 06:00N 57°46' W 001°57'4 7.2
2017-Jun-19 05:30N 57°46' W 002°04'50 1.5
2017-Jun-17 20:45N 58°29' W 002°52'310.2
2017-Jun-17 20:30N 58°32' W 002°50'510.2
2017-Jun-17 20:00N 58°37' W 002°47'611.2
2017-Jun-17 19:30N 58°42' W 002°43'611.6
2017-Jun-17 18:59N 58°48' W 002°40'711.8
2017-Jun-17 18:24N 58°54' W 002°36'611.3
2017-Jun-17 17:53N 58°60' W 002°41'410.2
2017-Jun-17 17:30N 59°00' W 002°49'5 9.6
2017-Jun-17 17:00N 59°01' W 002°58'1 1.3
2017-Jun-17 16:26N 59°00' W 002°58'0 0.0
2017-Jun-17 15:56N 59°00' W 002°58'0 0.0
2017-Jun-17 15:29N 59°00' W 002°58'0 0.0
2017-Jun-17 14:59N 59°00' W 002°58'0 0.0
2017-Jun-17 13:53N 59°00' W 002°58'0 0.0
2017-Jun-17 13:26N 59°00' W 002°58'0 0.0
2017-Jun-17 12:59N 59°00' W 002°58'0 0.0
2017-Jun-17 12:26N 59°00' W 002°58'0 0.0
2017-Jun-17 11:53N 59°00' W 002°58'0 0.0
2017-Jun-17 11:29N 59°00' W 002°58'0 0.0
2017-Jun-17 10:59N 59°00' W 002°58'0 0.0
2017-Jun-17 10:29N 59°00' W 002°58'0 0.0
2017-Jun-17 09:53N 59°00' W 002°58'0 0.0
2017-Jun-17 09:26N 59°00' W 002°58'0 0.0
2017-Jun-17 08:59N 59°00' W 002°58'0 0.0
2017-Jun-17 08:26N 59°00' W 002°58'0 0.0
2017-Jun-17 07:56N 59°00' W 002°58'0 0.2
2017-Jun-17 07:30N 59°00' W 002°58'2 4.4
2017-Jun-17 07:00N 59°01' W 002°54'4 8.7
2017-Jun-17 06:30N 59°00' W 002°46'2 4.7
2017-Jun-17 06:00N 58°60' W 002°42'4 8.1
2017-Jun-17 05:30N 58°56' W 002°38'4 8.0
2017-Jun-17 05:00N 58°52' W 002°38'4 8.5
2017-Jun-17 04:30N 58°49' W 002°43'4 8.7
2017-Jun-17 04:00N 58°46' W 002°49'4 8.8
2017-Jun-17 03:30N 58°43' W 002°55'611.2
2017-Jun-17 03:01N 58°43' W 003°06'714.2
2017-Jun-17 02:30N 58°43' W 003°20'713.3
2017-Jun-17 02:00N 58°42' W 003°33'613.0
2017-Jun-17 01:30N 58°42' W 003°45'713.1
2017-Jun-17 01:00N 58°41' W 003°58'713.6
2017-Jun-17 00:30N 58°41' W 004°11'3512.5
2017-Jun-16 21:43N 58°31' W 005°15'313.0
2017-Jun-16 21:28N 58°28' W 005°18'  
Track history (hours):
 
Tides and Currents Weather Stations Pressure Air Temp Water Temp Dewpoint Dewpoint Depression Visibility Wind Speed Wind Dir Waves Ship Positions

Seabourn Pride

Operator: Cunard Seabourn

Last reported at 2017-Jun-26 10:28 UTC. Time now 2017-Jun-26 10:37 UTC.
Position N 55°13' W 006°41'.

Length 134 m; draft 5.7 m.

Type: Ship. MMSI: 311084000.

Date/timePositionNaut miles runAvg speedWind from/ knotsBaromVisibWave heightAir tempDewpointWater temp
2017-Jun-26 10:28N 55°13' W 006°41'0 0.1
2017-Jun-26 09:58N 55°13' W 006°41'0 0.0
2017-Jun-26 09:28N 55°13' W 006°41'0 0.0
2017-Jun-26 08:58N 55°13' W 006°41'0 0.0
2017-Jun-26 08:28N 55°13' W 006°41'0 0.0
2017-Jun-26 07:58N 55°13' W 006°41'0 0.0
2017-Jun-26 07:28N 55°13' W 006°41'0 0.0
2017-Jun-26 06:58N 55°13' W 006°41'0 0.1
2017-Jun-26 06:28N 55°13' W 006°41'0 0.1
2017-Jun-26 06:00N 55°13' W 006°41'4 7.9
2017-Jun-26 05:30N 55°17' W 006°41'5 9.2
2017-Jun-26 05:00N 55°21' W 006°42'5 9.4
2017-Jun-26 04:30N 55°26' W 006°43'4 8.8
2017-Jun-26 04:00N 55°30' W 006°43'4 8.6
2017-Jun-26 03:30N 55°35' W 006°44'3 6.7
2017-Jun-26 03:00N 55°38' W 006°44'3 6.3
2017-Jun-26 02:30N 55°41' W 006°45'3 6.7
2017-Jun-26 02:00N 55°44' W 006°45'4 7.7
2017-Jun-26 01:30N 55°48' W 006°45'41 8.7
2017-Jun-25 20:45N 56°16' W 005°50'5 9.3
2017-Jun-25 20:10N 56°20' W 005°42'2 9.6
2017-Jun-25 20:00N 56°21' W 005°40'5 9.7
2017-Jun-25 19:30N 56°25' W 005°35'3 5.1
2017-Jun-25 18:58N 56°26' W 005°31'0 0.0
2017-Jun-25 18:28N 56°26' W 005°31'0 0.0
2017-Jun-25 17:52N 56°26' W 005°31'0 0.0
2017-Jun-25 17:28N 56°26' W 005°31'0 0.0
2017-Jun-25 16:58N 56°26' W 005°31'0 0.0
2017-Jun-25 16:22N 56°26' W 005°31'0 0.1
2017-Jun-25 15:58N 56°26' W 005°31'0 0.0
2017-Jun-25 15:25N 56°26' W 005°31'0 0.0
2017-Jun-25 14:55N 56°26' W 005°31'0 0.1
2017-Jun-25 14:22N 56°26' W 005°31'0 0.0
2017-Jun-25 13:28N 56°26' W 005°31'0 0.1
2017-Jun-25 12:58N 56°26' W 005°31'0 0.1
2017-Jun-25 12:28N 56°26' W 005°31'0 0.0
2017-Jun-25 11:55N 56°26' W 005°31'0 0.0
2017-Jun-25 11:16N 56°26' W 005°31'0 0.0
2017-Jun-25 10:55N 56°26' W 005°31'0 0.1
2017-Jun-25 10:28N 56°26' W 005°31'0 0.0
2017-Jun-25 09:58N 56°26' W 005°31'0 0.0
2017-Jun-25 09:28N 56°26' W 005°31'0 0.0
2017-Jun-25 08:58N 56°26' W 005°31'0 0.0
2017-Jun-25 08:25N 56°26' W 005°31'0 0.0
2017-Jun-25 07:55N 56°26' W 005°31'0 0.1
2017-Jun-25 07:28N 56°26' W 005°31'0 0.0
2017-Jun-25 06:58N 56°26' W 005°31'0 0.1
2017-Jun-25 06:28N 56°26' W 005°31'0 0.1
2017-Jun-25 05:58N 56°26' W 005°31'0 0.0
2017-Jun-25 05:28N 56°26' W 005°31'0 0.6
2017-Jun-25 05:00N 56°26' W 005°31'2 4.5
2017-Jun-25 04:31N 56°26' W 005°35'2 4.4
2017-Jun-25 04:00N 56°27' W 005°32'2 3.2
2017-Jun-25 03:30N 56°26' W 005°35'3 5.1
2017-Jun-25 03:01N 56°24' W 005°37'2 3.4
2017-Jun-25 02:30N 56°26' W 005°36'2 4.7
2017-Jun-25 02:00N 56°27' W 005°32'2 3.0
2017-Jun-25 01:30N 56°26' W 005°35'2 4.6
2017-Jun-25 01:00N 56°24' W 005°37'1 1.8
2017-Jun-25 00:30N 56°25' W 005°37'3 6.8
2017-Jun-25 00:00N 56°28' W 005°39'121 5.9
2017-Jun-24 03:37N 58°29' W 005°21'210.2
2017-Jun-24 03:23N 58°30' W 005°18'33 9.3
2017-Jun-23 23:49N 58°42' W 004°18'3 9.7
2017-Jun-23 23:30N 58°42' W 004°12'5 9.7
2017-Jun-23 23:00N 58°42' W 004°03'5 9.3
2017-Jun-23 22:30N 58°42' W 003°54'5 9.0
2017-Jun-23 22:00N 58°42' W 003°45'5 9.1
2017-Jun-23 21:30N 58°42' W 003°37'5 8.9
2017-Jun-23 21:00N 58°43' W 003°28'4 8.2
2017-Jun-23 20:30N 58°43' W 003°20'3 6.8
2017-Jun-23 20:00N 58°43' W 003°14'3 5.5
2017-Jun-23 19:30N 58°43' W 003°09'2 4.4
2017-Jun-23 19:00N 58°43' W 003°04'3 5.0
2017-Jun-23 18:30N 58°43' W 002°60'3 5.6
2017-Jun-23 18:00N 58°43' W 002°54'511.0
2017-Jun-23 17:30N 58°47' W 002°47'612.1
2017-Jun-23 17:00N 58°52' W 002°40'810.6
2017-Jun-23 16:15N 58°60' W 002°41'312.3
2017-Jun-23 16:00N 59°00' W 002°47'510.3
2017-Jun-23 15:30N 59°01' W 002°57'1 2.6
2017-Jun-23 14:59N 59°00' W 002°58'0 0.1
2017-Jun-23 13:59N 59°00' W 002°58'0 0.0
2017-Jun-23 13:29N 59°00' W 002°58'0 0.0
2017-Jun-23 12:59N 59°00' W 002°58'0 0.1
2017-Jun-23 12:26N 59°00' W 002°58'0 0.1
2017-Jun-23 11:59N 59°00' W 002°58'0 0.2
2017-Jun-23 11:29N 59°00' W 002°58'0 0.1
2017-Jun-23 10:53N 59°00' W 002°58'0 0.1
2017-Jun-23 10:29N 59°00' W 002°58'0 0.1
2017-Jun-23 09:59N 59°00' W 002°58'0 0.0
2017-Jun-23 09:23N 59°00' W 002°58'0 0.0
2017-Jun-23 08:59N 59°00' W 002°58'0 0.0
2017-Jun-23 08:29N 59°00' W 002°58'0 0.1
2017-Jun-23 07:59N 59°00' W 002°58'0 0.1
2017-Jun-23 07:26N 59°00' W 002°58'0 0.4
2017-Jun-23 07:00N 59°00' W 002°58'2 4.6
2017-Jun-23 06:30N 59°01' W 002°53'3 6.2
2017-Jun-23 06:00N 59°00' W 002°47'3 6.7
2017-Jun-23 05:30N 58°59' W 002°41'3 6.9
2017-Jun-23 05:00N 58°56' W 002°38'6 7.2
2017-Jun-23 04:11N 58°50' W 002°37'1 8.1
2017-Jun-23 04:00N 58°49' W 002°38'4 8.4
2017-Jun-23 03:30N 58°45' W 002°41'4 8.2
2017-Jun-23 03:00N 58°41' W 002°44'5 9.3
2017-Jun-23 02:30N 58°37' W 002°47'713.0
2017-Jun-23 02:00N 58°31' W 002°51'66 1.9
2017-Jun-21 15:13N 57°37' W 001°37'2 7.0
2017-Jun-21 15:00N 57°36' W 001°37'3 6.3
2017-Jun-21 14:30N 57°33' W 001°37'13 6.0
2017-Jun-21 12:25N 57°21' W 001°32'3 6.5
2017-Jun-21 11:53N 57°17' W 001°35'2 6.4
2017-Jun-21 11:30N 57°15' W 001°36'3 6.3
2017-Jun-21 10:59N 57°12' W 001°38'3 5.8
2017-Jun-21 10:30N 57°09' W 001°40'4 6.6
2017-Jun-21 09:57N 57°06' W 001°42'3 6.9
2017-Jun-21 09:28N 57°03' W 001°44'3 6.4
2017-Jun-21 08:58N 56°60' W 001°46'6 6.2
2017-Jun-21 08:02N 56°54' W 001°50'0 6.4
2017-Jun-21 07:58N 56°54' W 001°50'4 6.1
2017-Jun-21 07:20N 56°50' W 001°53'2 6.1
2017-Jun-21 06:58N 56°48' W 001°54'2 5.3
2017-Jun-21 06:30N 56°46' W 001°56'3 5.4
2017-Jun-21 06:00N 56°43' W 001°58'3 5.8
2017-Jun-21 05:30N 56°41' W 001°60'3 6.1
2017-Jun-21 05:00N 56°38' W 002°02'3 6.4
2017-Jun-21 04:30N 56°35' W 002°04'3 6.3
2017-Jun-21 04:00N 56°32' W 002°06'3 6.0
2017-Jun-21 03:30N 56°29' W 002°08'3 6.0
2017-Jun-21 03:00N 56°26' W 002°10'4 6.4
2017-Jun-21 02:24N 56°24' W 002°15'3 6.5
2017-Jun-21 02:01N 56°22' W 002°18'3 6.9
2017-Jun-21 01:30N 56°19' W 002°23'510.0
2017-Jun-21 01:00N 56°16' W 002°29'510.8
2017-Jun-21 00:30N 56°13' W 002°37'510.9
2017-Jun-21 00:00N 56°09' W 002°45'510.8
2017-Jun-20 23:30N 56°06' W 002°53'510.1
2017-Jun-20 23:00N 56°03' W 002°60'5 9.4
2017-Jun-20 22:30N 56°01' W 003°07'3 5.0
2017-Jun-20 22:00N 55°59' W 003°11'0 0.3
2017-Jun-20 21:30N 55°59' W 003°11'0 0.7
2017-Jun-20 20:58N 55°59' W 003°11'0 0.0
2017-Jun-20 20:28N 55°59' W 003°11'0 0.0
2017-Jun-20 19:58N 55°59' W 003°11'0 0.0
2017-Jun-20 19:28N 55°59' W 003°11'0 0.0
2017-Jun-20 18:58N 55°59' W 003°11'0 0.0
2017-Jun-20 18:28N 55°59' W 003°11'0 0.0
2017-Jun-20 17:58N 55°59' W 003°11'0 0.0
2017-Jun-20 17:28N 55°59' W 003°11'0 0.0
2017-Jun-20 16:58N 55°59' W 003°11'0 0.0
2017-Jun-20 16:28N 55°59' W 003°11'0 0.0
2017-Jun-20 15:58N 55°59' W 003°11'0 0.0
2017-Jun-20 15:28N 55°59' W 003°11'0 0.0
2017-Jun-20 14:58N 55°59' W 003°11'0 0.0
2017-Jun-20 14:28N 55°59' W 003°11'0 0.0
2017-Jun-20 13:28N 55°59' W 003°11'0 0.0
2017-Jun-20 12:58N 55°59' W 003°11'0 0.0
2017-Jun-20 12:28N 55°59' W 003°11'0 0.0
2017-Jun-20 11:58N 55°59' W 003°11'0 0.0
2017-Jun-20 11:28N 55°59' W 003°11'0 0.0
2017-Jun-20 10:58N 55°59' W 003°11'0 0.0
2017-Jun-20 10:25N 55°59' W 003°11'0 0.0
2017-Jun-20 09:58N 55°59' W 003°11'0 0.0
2017-Jun-20 09:28N 55°59' W 003°11'0 0.0
2017-Jun-20 08:58N 55°59' W 003°11'0 0.0
2017-Jun-20 08:28N 55°59' W 003°11'0 0.0
2017-Jun-20 07:58N 55°59' W 003°11'0 0.0
2017-Jun-20 07:28N 55°59' W 003°11'0 0.0
2017-Jun-20 06:58N 55°59' W 003°11'0 0.0
2017-Jun-20 06:28N 55°59' W 003°11'0 0.0
2017-Jun-20 05:58N 55°59' W 003°11'0 0.0
2017-Jun-20 05:30N 55°59' W 003°11'0 0.7
2017-Jun-20 05:00N 55°59' W 003°11'0 0.2
2017-Jun-20 04:31N 55°59' W 003°11'1 2.0
2017-Jun-20 04:00N 56°00' W 003°12'2 3.9
2017-Jun-20 03:31N 56°01' W 003°08'4 7.1
2017-Jun-20 03:00N 56°02' W 003°03'4 7.0
2017-Jun-20 02:30N 56°04' W 002°57'3 5.4
2017-Jun-20 02:01N 56°06' W 002°53'3 5.8
2017-Jun-20 01:31N 56°08' W 002°49'3 5.1
2017-Jun-20 01:00N 56°09' W 002°45'2 4.5
2017-Jun-20 00:30N 56°07' W 002°48'1 2.3
2017-Jun-20 00:00N 56°08' W 002°49'2 4.8
2017-Jun-19 23:31N 56°09' W 002°46'3 5.5
2017-Jun-19 23:00N 56°10' W 002°42'3 5.8
2017-Jun-19 22:30N 56°12' W 002°37'3 6.1
2017-Jun-19 22:00N 56°14' W 002°33'3 6.0
2017-Jun-19 21:31N 56°16' W 002°29'3 6.2
2017-Jun-19 21:01N 56°18' W 002°25'3 6.2
2017-Jun-19 20:31N 56°20' W 002°21'3 6.3
2017-Jun-19 20:00N 56°22' W 002°17'3 6.0
2017-Jun-19 19:31N 56°24' W 002°13'3 6.1
2017-Jun-19 19:01N 56°27' W 002°10'3 6.3
2017-Jun-19 18:31N 56°30' W 002°07'3 6.2
2017-Jun-19 18:00N 56°33' W 002°05'3 6.2
2017-Jun-19 17:27N 56°36' W 002°03'4 6.2
2017-Jun-19 16:51N 56°39' W 002°01'2 6.6
2017-Jun-19 16:30N 56°41' W 001°59'12 6.2
2017-Jun-19 14:33N 56°53' W 001°51'1 5.5
2017-Jun-19 14:25N 56°53' W 001°50'6 6.3
2017-Jun-19 13:30N 56°59' W 001°47'3 6.0
2017-Jun-19 13:01N 57°02' W 001°45'3 6.0
2017-Jun-19 12:29N 57°05' W 001°43'3 6.0
2017-Jun-19 12:01N 57°07' W 001°41'3 6.0
2017-Jun-19 11:30N 57°10' W 001°39'4 6.3
2017-Jun-19 10:51N 57°14' W 001°36'22 6.7
2017-Jun-19 07:34N 57°36' W 001°41'0 8.8
2017-Jun-19 07:30N 57°36' W 001°41'4 8.7
2017-Jun-19 07:00N 57°40' W 001°46'5 8.8
2017-Jun-19 06:30N 57°43' W 001°52'4 7.9
2017-Jun-19 06:00N 57°46' W 001°57'4 7.2
2017-Jun-19 05:30N 57°46' W 002°04'50 1.5
2017-Jun-17 20:45N 58°29' W 002°52'310.2
2017-Jun-17 20:30N 58°32' W 002°50'510.2
2017-Jun-17 20:00N 58°37' W 002°47'611.2
2017-Jun-17 19:30N 58°42' W 002°43'611.6
2017-Jun-17 18:59N 58°48' W 002°40'711.8
2017-Jun-17 18:24N 58°54' W 002°36'611.3
2017-Jun-17 17:53N 58°60' W 002°41'410.2
2017-Jun-17 17:30N 59°00' W 002°49'5 9.6
2017-Jun-17 17:00N 59°01' W 002°58'1 1.3
2017-Jun-17 16:26N 59°00' W 002°58'0 0.0
2017-Jun-17 15:56N 59°00' W 002°58'0 0.0
2017-Jun-17 15:29N 59°00' W 002°58'0 0.0
2017-Jun-17 14:59N 59°00' W 002°58'0 0.0
2017-Jun-17 13:53N 59°00' W 002°58'0 0.0
2017-Jun-17 13:26N 59°00' W 002°58'0 0.0
2017-Jun-17 12:59N 59°00' W 002°58'0 0.0
2017-Jun-17 12:26N 59°00' W 002°58'0 0.0
2017-Jun-17 11:53N 59°00' W 002°58'0 0.0
2017-Jun-17 11:29N 59°00' W 002°58'0 0.0
2017-Jun-17 10:59N 59°00' W 002°58'0 0.0
2017-Jun-17 10:29N 59°00' W 002°58'0 0.0
2017-Jun-17 09:53N 59°00' W 002°58'0 0.0
2017-Jun-17 09:26N 59°00' W 002°58'0 0.0
2017-Jun-17 08:59N 59°00' W 002°58'0 0.0
2017-Jun-17 08:26N 59°00' W 002°58'0 0.0
2017-Jun-17 07:56N 59°00' W 002°58'0 0.2
2017-Jun-17 07:30N 59°00' W 002°58'2 4.4
2017-Jun-17 07:00N 59°01' W 002°54'4 8.7
2017-Jun-17 06:30N 59°00' W 002°46'2 4.7
2017-Jun-17 06:00N 58°60' W 002°42'4 8.1
2017-Jun-17 05:30N 58°56' W 002°38'4 8.0
2017-Jun-17 05:00N 58°52' W 002°38'4 8.5
2017-Jun-17 04:30N 58°49' W 002°43'4 8.7
2017-Jun-17 04:00N 58°46' W 002°49'4 8.8
2017-Jun-17 03:30N 58°43' W 002°55'611.2
2017-Jun-17 03:01N 58°43' W 003°06'714.2
2017-Jun-17 02:30N 58°43' W 003°20'713.3
2017-Jun-17 02:00N 58°42' W 003°33'613.0
2017-Jun-17 01:30N 58°42' W 003°45'713.1
2017-Jun-17 01:00N 58°41' W 003°58'713.6
2017-Jun-17 00:30N 58°41' W 004°11'3512.5
2017-Jun-16 21:43N 58°31' W 005°15'313.0
2017-Jun-16 21:28N 58°28' W 005°18'  

Dump ship's entire track history